sensor_id;sensor_type;location;lat;lon;timestamp;temperature;humidity
8707;DHT22;4390;49.302;9.306;2023-03-12T00:02:19;-0.30;90.30
8707;DHT22;4390;49.302;9.306;2023-03-12T00:04:47;-0.50;90.80
8707;DHT22;4390;49.302;9.306;2023-03-12T00:07:13;-0.50;91.40
8707;DHT22;4390;49.302;9.306;2023-03-12T00:09:40;-0.50;91.10
8707;DHT22;4390;49.302;9.306;2023-03-12T00:12:07;-0.60;91.30
8707;DHT22;4390;49.302;9.306;2023-03-12T00:14:34;-0.60;91.50
8707;DHT22;4390;49.302;9.306;2023-03-12T00:17:01;-0.60;91.40
8707;DHT22;4390;49.302;9.306;2023-03-12T00:19:28;-0.40;91.20
8707;DHT22;4390;49.302;9.306;2023-03-12T00:21:54;-0.40;90.90
8707;DHT22;4390;49.302;9.306;2023-03-12T00:24:21;-0.50;90.90
8707;DHT22;4390;49.302;9.306;2023-03-12T00:26:48;-0.50;91.00
8707;DHT22;4390;49.302;9.306;2023-03-12T00:29:15;-0.40;91.00
8707;DHT22;4390;49.302;9.306;2023-03-12T00:31:42;-0.40;90.80
8707;DHT22;4390;49.302;9.306;2023-03-12T00:34:09;-0.30;90.80
8707;DHT22;4390;49.302;9.306;2023-03-12T00:36:37;-0.40;90.90
8707;DHT22;4390;49.302;9.306;2023-03-12T00:39:04;-0.50;91.00
8707;DHT22;4390;49.302;9.306;2023-03-12T00:41:31;-0.60;91.30
8707;DHT22;4390;49.302;9.306;2023-03-12T00:43:57;-0.70;91.40
8707;DHT22;4390;49.302;9.306;2023-03-12T00:46:24;-0.60;91.20
8707;DHT22;4390;49.302;9.306;2023-03-12T00:48:51;-0.70;91.50
8707;DHT22;4390;49.302;9.306;2023-03-12T00:51:18;-0.70;91.50
8707;DHT22;4390;49.302;9.306;2023-03-12T00:53:45;-0.50;91.10
8707;DHT22;4390;49.302;9.306;2023-03-12T00:56:12;-0.40;90.80
8707;DHT22;4390;49.302;9.306;2023-03-12T00:58:39;-0.50;90.90
8707;DHT22;4390;49.302;9.306;2023-03-12T01:01:08;-0.50;91.00
8707;DHT22;4390;49.302;9.306;2023-03-12T01:03:35;-0.50;90.90
8707;DHT22;4390;49.302;9.306;2023-03-12T01:06:02;-0.50;90.90
8707;DHT22;4390;49.302;9.306;2023-03-12T01:08:29;-0.40;90.70
8707;DHT22;4390;49.302;9.306;2023-03-12T01:10:56;-0.50;90.70
8707;DHT22;4390;49.302;9.306;2023-03-12T01:13:23;-0.40;90.60
8707;DHT22;4390;49.302;9.306;2023-03-12T01:15:50;-0.30;90.20
8707;DHT22;4390;49.302;9.306;2023-03-12T01:18:16;-0.40;90.20
8707;DHT22;4390;49.302;9.306;2023-03-12T01:20:43;-0.60;90.70
8707;DHT22;4390;49.302;9.306;2023-03-12T01:23:10;-0.70;91.10
8707;DHT22;4390;49.302;9.306;2023-03-12T01:25:37;-0.50;91.00
8707;DHT22;4390;49.302;9.306;2023-03-12T01:28:04;-0.40;90.60
8707;DHT22;4390;49.302;9.306;2023-03-12T01:30:31;-0.60;90.70
8707;DHT22;4390;49.302;9.306;2023-03-12T01:32:58;-0.70;91.40
8707;DHT22;4390;49.302;9.306;2023-03-12T01:35:24;-0.70;91.60
8707;DHT22;4390;49.302;9.306;2023-03-12T01:37:52;-0.70;91.60
8707;DHT22;4390;49.302;9.306;2023-03-12T01:40:21;-0.60;91.70
8707;DHT22;4390;49.302;9.306;2023-03-12T01:42:55;-0.60;91.50
8707;DHT22;4390;49.302;9.306;2023-03-12T01:48:33;-0.60;91.70
8707;DHT22;4390;49.302;9.306;2023-03-12T01:51:02;-0.50;91.70
8707;DHT22;4390;49.302;9.306;2023-03-12T01:53:30;-0.40;91.70
8707;DHT22;4390;49.302;9.306;2023-03-12T01:55:59;-0.40;91.80
8707;DHT22;4390;49.302;9.306;2023-03-12T01:58:27;-0.40;91.90
8707;DHT22;4390;49.302;9.306;2023-03-12T02:00:56;-0.40;91.80
8707;DHT22;4390;49.302;9.306;2023-03-12T02:03:22;-0.50;91.80
8707;DHT22;4390;49.302;9.306;2023-03-12T02:05:57;-0.40;92.10
8707;DHT22;4390;49.302;9.306;2023-03-12T02:08:25;-0.40;91.90
8707;DHT22;4390;49.302;9.306;2023-03-12T02:10:52;-0.50;92.30
8707;DHT22;4390;49.302;9.306;2023-03-12T02:13:19;-0.40;92.40
8707;DHT22;4390;49.302;9.306;2023-03-12T02:15:46;-0.20;91.90
8707;DHT22;4390;49.302;9.306;2023-03-12T02:18:18;0.00;91.50
8707;DHT22;4390;49.302;9.306;2023-03-12T02:26:28;0.00;91.60
8707;DHT22;4390;49.302;9.306;2023-03-12T02:28:58;-0.10;91.50
8707;DHT22;4390;49.302;9.306;2023-03-12T02:31:30;-0.10;91.60
8707;DHT22;4390;49.302;9.306;2023-03-12T02:33:58;-0.10;91.60
8707;DHT22;4390;49.302;9.306;2023-03-12T02:36:26;0.10;91.40
8707;DHT22;4390;49.302;9.306;2023-03-12T02:38:54;0.00;91.30
8707;DHT22;4390;49.302;9.306;2023-03-12T02:44:03;-0.10;91.50
8707;DHT22;4390;49.302;9.306;2023-03-12T02:46:34;-0.10;91.70
8707;DHT22;4390;49.302;9.306;2023-03-12T02:49:02;-0.20;92.10
8707;DHT22;4390;49.302;9.306;2023-03-12T02:51:29;-0.20;92.10
8707;DHT22;4390;49.302;9.306;2023-03-12T02:53:56;0.00;92.10
8707;DHT22;4390;49.302;9.306;2023-03-12T02:56:25;-0.10;91.60
8707;DHT22;4390;49.302;9.306;2023-03-12T02:58:52;-0.20;92.20
8707;DHT22;4390;49.302;9.306;2023-03-12T03:01:21;-0.40;92.40
8707;DHT22;4390;49.302;9.306;2023-03-12T03:03:48;-0.30;92.70
8707;DHT22;4390;49.302;9.306;2023-03-12T03:06:16;-0.30;92.60
8707;DHT22;4390;49.302;9.306;2023-03-12T03:08:42;-0.20;92.60
8707;DHT22;4390;49.302;9.306;2023-03-12T03:11:09;0.00;92.40
8707;DHT22;4390;49.302;9.306;2023-03-12T03:13:36;-0.10;92.20
8707;DHT22;4390;49.302;9.306;2023-03-12T03:16:03;0.00;92.00
8707;DHT22;4390;49.302;9.306;2023-03-12T03:18:32;0.10;91.70
8707;DHT22;4390;49.302;9.306;2023-03-12T03:21:04;0.10;91.60
8707;DHT22;4390;49.302;9.306;2023-03-12T03:23:32;-0.10;92.10
8707;DHT22;4390;49.302;9.306;2023-03-12T03:25:59;-0.10;92.00
8707;DHT22;4390;49.302;9.306;2023-03-12T03:28:27;-0.20;92.30
8707;DHT22;4390;49.302;9.306;2023-03-12T03:30:56;-0.20;92.30
8707;DHT22;4390;49.302;9.306;2023-03-12T03:33:33;-0.10;92.40
8707;DHT22;4390;49.302;9.306;2023-03-12T03:36:01;0.00;92.40
8707;DHT22;4390;49.302;9.306;2023-03-12T03:38:32;0.20;91.90
8707;DHT22;4390;49.302;9.306;2023-03-12T03:40:59;0.30;91.70
8707;DHT22;4390;49.302;9.306;2023-03-12T03:43:26;0.10;91.90
8707;DHT22;4390;49.302;9.306;2023-03-12T03:46:01;0.00;92.30
8707;DHT22;4390;49.302;9.306;2023-03-12T03:48:32;0.00;92.70
8707;DHT22;4390;49.302;9.306;2023-03-12T03:51:00;0.00;92.70
8707;DHT22;4390;49.302;9.306;2023-03-12T03:53:30;0.00;92.70
8707;DHT22;4390;49.302;9.306;2023-03-12T03:55:57;0.20;92.40
8707;DHT22;4390;49.302;9.306;2023-03-12T03:58:24;0.30;92.00
8707;DHT22;4390;49.302;9.306;2023-03-12T04:00:50;0.40;91.80
8707;DHT22;4390;49.302;9.306;2023-03-12T04:03:19;0.40;91.80
8707;DHT22;4390;49.302;9.306;2023-03-12T04:05:51;0.30;92.20
8707;DHT22;4390;49.302;9.306;2023-03-12T04:08:19;0.30;92.00
8707;DHT22;4390;49.302;9.306;2023-03-12T04:10:45;0.10;92.20
8707;DHT22;4390;49.302;9.306;2023-03-12T04:13:12;0.10;92.80
8707;DHT22;4390;49.302;9.306;2023-03-12T04:15:48;0.20;92.60
8707;DHT22;4390;49.302;9.306;2023-03-12T04:18:16;0.30;92.30
8707;DHT22;4390;49.302;9.306;2023-03-12T04:20:43;0.20;92.30
8707;DHT22;4390;49.302;9.306;2023-03-12T04:23:11;0.10;92.50
8707;DHT22;4390;49.302;9.306;2023-03-12T04:25:38;0.20;92.70
8707;DHT22;4390;49.302;9.306;2023-03-12T04:28:05;0.30;92.30
8707;DHT22;4390;49.302;9.306;2023-03-12T04:30:33;0.20;92.70
8707;DHT22;4390;49.302;9.306;2023-03-12T04:33:00;0.20;92.80
8707;DHT22;4390;49.302;9.306;2023-03-12T04:35:27;0.30;92.80
8707;DHT22;4390;49.302;9.306;2023-03-12T04:37:54;0.40;92.60
8707;DHT22;4390;49.302;9.306;2023-03-12T04:40:21;0.50;92.10
8707;DHT22;4390;49.302;9.306;2023-03-12T04:42:48;0.50;92.20
8707;DHT22;4390;49.302;9.306;2023-03-12T04:45:15;0.60;92.20
8707;DHT22;4390;49.302;9.306;2023-03-12T04:47:45;0.50;92.00
8707;DHT22;4390;49.302;9.306;2023-03-12T04:50:13;0.50;92.20
8707;DHT22;4390;49.302;9.306;2023-03-12T04:52:41;0.50;92.20
8707;DHT22;4390;49.302;9.306;2023-03-12T04:55:08;0.50;92.20
8707;DHT22;4390;49.302;9.306;2023-03-12T04:57:35;0.50;92.00
8707;DHT22;4390;49.302;9.306;2023-03-12T05:00:03;0.80;91.80
8707;DHT22;4390;49.302;9.306;2023-03-12T05:02:36;0.80;91.40
8707;DHT22;4390;49.302;9.306;2023-03-12T05:05:03;0.70;91.60
8707;DHT22;4390;49.302;9.306;2023-03-12T05:07:30;0.80;92.00
8707;DHT22;4390;49.302;9.306;2023-03-12T05:09:58;0.70;91.80
8707;DHT22;4390;49.302;9.306;2023-03-12T05:12:25;0.50;92.20
8707;DHT22;4390;49.302;9.306;2023-03-12T05:14:52;0.40;92.80
8707;DHT22;4390;49.302;9.306;2023-03-12T05:17:19;0.40;93.20
8707;DHT22;4390;49.302;9.306;2023-03-12T05:19:45;0.40;93.20
8707;DHT22;4390;49.302;9.306;2023-03-12T05:22:13;0.50;92.90
8707;DHT22;4390;49.302;9.306;2023-03-12T05:24:40;0.50;92.80
8707;DHT22;4390;49.302;9.306;2023-03-12T05:27:07;0.60;93.00
8707;DHT22;4390;49.302;9.306;2023-03-12T05:29:34;0.80;92.60
8707;DHT22;4390;49.302;9.306;2023-03-12T05:32:02;0.90;92.20
8707;DHT22;4390;49.302;9.306;2023-03-12T05:34:29;0.90;92.20
8707;DHT22;4390;49.302;9.306;2023-03-12T05:37:01;0.70;92.60
8707;DHT22;4390;49.302;9.306;2023-03-12T05:39:29;0.80;92.50
8707;DHT22;4390;49.302;9.306;2023-03-12T05:42:01;0.80;92.30
8707;DHT22;4390;49.302;9.306;2023-03-12T05:44:28;0.90;92.40
8707;DHT22;4390;49.302;9.306;2023-03-12T05:46:55;1.00;91.80
8707;DHT22;4390;49.302;9.306;2023-03-12T05:49:25;0.90;91.70
8707;DHT22;4390;49.302;9.306;2023-03-12T05:51:53;0.80;92.10
8707;DHT22;4390;49.302;9.306;2023-03-12T05:54:21;0.60;92.30
8707;DHT22;4390;49.302;9.306;2023-03-12T05:56:50;0.70;92.70
8707;DHT22;4390;49.302;9.306;2023-03-12T05:59:18;0.60;92.70
8707;DHT22;4390;49.302;9.306;2023-03-12T06:01:45;0.60;92.70
8707;DHT22;4390;49.302;9.306;2023-03-12T06:04:12;0.70;92.70
8707;DHT22;4390;49.302;9.306;2023-03-12T06:06:39;0.70;92.70
8707;DHT22;4390;49.302;9.306;2023-03-12T06:09:05;0.80;93.00
8707;DHT22;4390;49.302;9.306;2023-03-12T06:11:33;0.80;92.70
8707;DHT22;4390;49.302;9.306;2023-03-12T06:14:00;0.80;92.90
8707;DHT22;4390;49.302;9.306;2023-03-12T06:16:36;0.90;92.80
8707;DHT22;4390;49.302;9.306;2023-03-12T06:19:04;0.80;93.00
8707;DHT22;4390;49.302;9.306;2023-03-12T06:21:33;1.00;93.60
8707;DHT22;4390;49.302;9.306;2023-03-12T06:24:01;0.90;94.20
8707;DHT22;4390;49.302;9.306;2023-03-12T06:26:38;0.90;94.70
8707;DHT22;4390;49.302;9.306;2023-03-12T06:29:06;0.70;95.00
8707;DHT22;4390;49.302;9.306;2023-03-12T06:31:32;0.60;95.60
8707;DHT22;4390;49.302;9.306;2023-03-12T06:34:28;0.70;95.50
8707;DHT22;4390;49.302;9.306;2023-03-12T06:36:55;0.70;95.60
8707;DHT22;4390;49.302;9.306;2023-03-12T06:39:25;0.80;95.70
8707;DHT22;4390;49.302;9.306;2023-03-12T06:42:26;0.80;95.70
8707;DHT22;4390;49.302;9.306;2023-03-12T06:44:53;0.90;95.50
8707;DHT22;4390;49.302;9.306;2023-03-12T06:47:19;0.80;95.60
8707;DHT22;4390;49.302;9.306;2023-03-12T06:49:46;0.90;95.80
8707;DHT22;4390;49.302;9.306;2023-03-12T06:52:13;1.00;95.90
8707;DHT22;4390;49.302;9.306;2023-03-12T06:54:39;1.00;95.80
8707;DHT22;4390;49.302;9.306;2023-03-12T06:57:06;1.20;95.70
8707;DHT22;4390;49.302;9.306;2023-03-12T06:59:33;1.20;95.80
8707;DHT22;4390;49.302;9.306;2023-03-12T07:02:03;1.20;95.80
8707;DHT22;4390;49.302;9.306;2023-03-12T07:04:30;1.00;96.30
8707;DHT22;4390;49.302;9.306;2023-03-12T07:06:57;1.00;96.90
8707;DHT22;4390;49.302;9.306;2023-03-12T07:09:34;1.20;96.90
8707;DHT22;4390;49.302;9.306;2023-03-12T07:12:01;1.20;96.50
8707;DHT22;4390;49.302;9.306;2023-03-12T07:14:30;1.20;96.80
8707;DHT22;4390;49.302;9.306;2023-03-12T07:16:56;1.40;96.60
8707;DHT22;4390;49.302;9.306;2023-03-12T07:19:35;1.40;96.80
8707;DHT22;4390;49.302;9.306;2023-03-12T07:22:02;1.40;96.50
8707;DHT22;4390;49.302;9.306;2023-03-12T07:24:33;1.50;96.60
8707;DHT22;4390;49.302;9.306;2023-03-12T07:27:03;1.70;96.20
8707;DHT22;4390;49.302;9.306;2023-03-12T07:29:31;1.60;96.00
8707;DHT22;4390;49.302;9.306;2023-03-12T07:31:58;1.50;95.90
8707;DHT22;4390;49.302;9.306;2023-03-12T07:34:26;1.50;95.70
8707;DHT22;4390;49.302;9.306;2023-03-12T07:36:53;1.50;95.70
8707;DHT22;4390;49.302;9.306;2023-03-12T07:39:27;1.60;95.40
8707;DHT22;4390;49.302;9.306;2023-03-12T07:41:54;1.60;95.10
8707;DHT22;4390;49.302;9.306;2023-03-12T07:44:21;1.70;95.30
8707;DHT22;4390;49.302;9.306;2023-03-12T07:46:48;1.80;95.00
8707;DHT22;4390;49.302;9.306;2023-03-12T07:49:15;1.90;95.00
8707;DHT22;4390;49.302;9.306;2023-03-12T07:51:42;1.70;95.00
8707;DHT22;4390;49.302;9.306;2023-03-12T07:54:09;1.60;95.40
8707;DHT22;4390;49.302;9.306;2023-03-12T07:56:35;1.50;96.10
8707;DHT22;4390;49.302;9.306;2023-03-12T07:59:02;1.50;96.10
8707;DHT22;4390;49.302;9.306;2023-03-12T08:01:30;1.70;96.10
8707;DHT22;4390;49.302;9.306;2023-03-12T08:04:12;1.90;95.90
8707;DHT22;4390;49.302;9.306;2023-03-12T08:06:43;1.70;96.30
8707;DHT22;4390;49.302;9.306;2023-03-12T08:09:10;1.70;96.80
8707;DHT22;4390;49.302;9.306;2023-03-12T08:11:40;1.90;96.90
8707;DHT22;4390;49.302;9.306;2023-03-12T08:14:07;2.00;96.30
8707;DHT22;4390;49.302;9.306;2023-03-12T08:16:36;2.10;96.30
8707;DHT22;4390;49.302;9.306;2023-03-12T08:19:03;2.30;95.80
8707;DHT22;4390;49.302;9.306;2023-03-12T08:21:30;2.40;96.00
8707;DHT22;4390;49.302;9.306;2023-03-12T08:23:56;2.50;95.30
8707;DHT22;4390;49.302;9.306;2023-03-12T08:26:23;2.60;95.50
8707;DHT22;4390;49.302;9.306;2023-03-12T08:28:50;2.70;94.70
8707;DHT22;4390;49.302;9.306;2023-03-12T08:31:28;2.90;94.60
8707;DHT22;4390;49.302;9.306;2023-03-12T08:33:55;3.00;94.50
8707;DHT22;4390;49.302;9.306;2023-03-12T08:36:21;3.00;94.70
8707;DHT22;4390;49.302;9.306;2023-03-12T08:38:48;3.00;95.00
8707;DHT22;4390;49.302;9.306;2023-03-12T08:41:15;2.90;94.90
8707;DHT22;4390;49.302;9.306;2023-03-12T08:43:41;3.00;95.20
8707;DHT22;4390;49.302;9.306;2023-03-12T08:46:08;3.00;95.60
8707;DHT22;4390;49.302;9.306;2023-03-12T08:48:38;3.00;95.80
8707;DHT22;4390;49.302;9.306;2023-03-12T08:51:06;2.90;95.60
8707;DHT22;4390;49.302;9.306;2023-03-12T08:53:35;2.90;96.10
8707;DHT22;4390;49.302;9.306;2023-03-12T08:56:02;3.10;95.80
8707;DHT22;4390;49.302;9.306;2023-03-12T08:58:32;3.10;95.90
8707;DHT22;4390;49.302;9.306;2023-03-12T09:00:59;3.20;95.80
8707;DHT22;4390;49.302;9.306;2023-03-12T09:03:26;3.20;95.80
8707;DHT22;4390;49.302;9.306;2023-03-12T09:06:08;3.30;95.30
8707;DHT22;4390;49.302;9.306;2023-03-12T09:08:39;3.30;95.50
8707;DHT22;4390;49.302;9.306;2023-03-12T09:11:08;3.30;95.30
8707;DHT22;4390;49.302;9.306;2023-03-12T09:13:35;3.30;95.90
8707;DHT22;4390;49.302;9.306;2023-03-12T09:16:21;3.30;95.80
8707;DHT22;4390;49.302;9.306;2023-03-12T09:18:48;3.40;95.90
8707;DHT22;4390;49.302;9.306;2023-03-12T09:21:16;3.50;95.80
8707;DHT22;4390;49.302;9.306;2023-03-12T09:23:58;3.60;95.20
8707;DHT22;4390;49.302;9.306;2023-03-12T09:26:25;3.50;95.30
8707;DHT22;4390;49.302;9.306;2023-03-12T09:28:51;3.40;96.00
8707;DHT22;4390;49.302;9.306;2023-03-12T09:31:21;3.70;95.90
8707;DHT22;4390;49.302;9.306;2023-03-12T09:33:48;3.80;95.00
8707;DHT22;4390;49.302;9.306;2023-03-12T09:36:15;3.70;94.90
8707;DHT22;4390;49.302;9.306;2023-03-12T09:38:46;3.60;95.30
8707;DHT22;4390;49.302;9.306;2023-03-12T09:41:19;3.50;95.60
8707;DHT22;4390;49.302;9.306;2023-03-12T09:44:10;3.70;95.20
8707;DHT22;4390;49.302;9.306;2023-03-12T09:49:46;3.90;95.60
8707;DHT22;4390;49.302;9.306;2023-03-12T09:52:24;3.90;95.80
8707;DHT22;4390;49.302;9.306;2023-03-12T09:55:11;3.90;96.30
8707;DHT22;4390;49.302;9.306;2023-03-12T09:57:42;3.70;96.60
8707;DHT22;4390;49.302;9.306;2023-03-12T10:00:15;3.70;96.90
8707;DHT22;4390;49.302;9.306;2023-03-12T10:08:35;3.50;98.10
8707;DHT22;4390;49.302;9.306;2023-03-12T10:11:32;3.50;98.00
8707;DHT22;4390;49.302;9.306;2023-03-12T10:17:22;3.60;97.60
8707;DHT22;4390;49.302;9.306;2023-03-12T10:23:40;3.70;97.40
8707;DHT22;4390;49.302;9.306;2023-03-12T10:28:44;3.60;98.30
8707;DHT22;4390;49.302;9.306;2023-03-12T10:31:35;3.60;98.30
8707;DHT22;4390;49.302;9.306;2023-03-12T10:34:14;3.60;98.30
8707;DHT22;4390;49.302;9.306;2023-03-12T10:36:43;3.60;98.30
8707;DHT22;4390;49.302;9.306;2023-03-12T10:39:17;3.50;98.30
8707;DHT22;4390;49.302;9.306;2023-03-12T10:41:46;3.60;98.30
8707;DHT22;4390;49.302;9.306;2023-03-12T10:44:19;3.60;98.30
8707;DHT22;4390;49.302;9.306;2023-03-12T10:47:17;3.60;98.30
8707;DHT22;4390;49.302;9.306;2023-03-12T10:49:49;3.60;98.30
8707;DHT22;4390;49.302;9.306;2023-03-12T10:52:22;3.70;98.30
8707;DHT22;4390;49.302;9.306;2023-03-12T10:54:51;3.60;98.30
8707;DHT22;4390;49.302;9.306;2023-03-12T10:57:19;3.80;98.30
8707;DHT22;4390;49.302;9.306;2023-03-12T10:59:47;3.90;98.10
8707;DHT22;4390;49.302;9.306;2023-03-12T11:02:27;3.80;98.30
8707;DHT22;4390;49.302;9.306;2023-03-12T11:04:54;4.00;98.30
8707;DHT22;4390;49.302;9.306;2023-03-12T11:07:32;3.90;98.10
8707;DHT22;4390;49.302;9.306;2023-03-12T11:10:16;4.00;98.20
8707;DHT22;4390;49.302;9.306;2023-03-12T11:13:05;4.00;98.00
8707;DHT22;4390;49.302;9.306;2023-03-12T11:15:45;3.90;98.30
8707;DHT22;4390;49.302;9.306;2023-03-12T11:18:34;4.00;98.30
8707;DHT22;4390;49.302;9.306;2023-03-12T11:23:46;4.10;98.30
8707;DHT22;4390;49.302;9.306;2023-03-12T11:26:19;4.10;98.00
8707;DHT22;4390;49.302;9.306;2023-03-12T11:28:55;4.10;98.00
8707;DHT22;4390;49.302;9.306;2023-03-12T11:31:28;4.40;97.50
8707;DHT22;4390;49.302;9.306;2023-03-12T11:34:06;4.50;97.10
8707;DHT22;4390;49.302;9.306;2023-03-12T11:39:52;4.30;98.10
8707;DHT22;4390;49.302;9.306;2023-03-12T11:42:30;4.40;98.00
8707;DHT22;4390;49.302;9.306;2023-03-12T11:53:54;4.50;97.90
8707;DHT22;4390;49.302;9.306;2023-03-12T11:56:33;4.40;98.30
8707;DHT22;4390;49.302;9.306;2023-03-12T12:03:02;4.60;98.20
8707;DHT22;4390;49.302;9.306;2023-03-12T12:05:22;4.60;98.10
8707;DHT22;4390;49.302;9.306;2023-03-12T12:11:20;4.60;98.30
8707;DHT22;4390;49.302;9.306;2023-03-12T12:20:18;4.70;98.30
8707;DHT22;4390;49.302;9.306;2023-03-12T12:36:45;5.30;98.30
8707;DHT22;4390;49.302;9.306;2023-03-12T12:39:28;5.40;98.30
8707;DHT22;4390;49.302;9.306;2023-03-12T12:41:57;5.40;98.30
8707;DHT22;4390;49.302;9.306;2023-03-12T12:44:42;5.30;98.30
8707;DHT22;4390;49.302;9.306;2023-03-12T12:47:15;5.50;98.30
8707;DHT22;4390;49.302;9.306;2023-03-12T12:49:45;5.60;98.30
8707;DHT22;4390;49.302;9.306;2023-03-12T12:52:16;5.60;98.30
8707;DHT22;4390;49.302;9.306;2023-03-12T12:57:51;6.00;98.10
8707;DHT22;4390;49.302;9.306;2023-03-12T13:00:42;6.30;97.60
8707;DHT22;4390;49.302;9.306;2023-03-12T13:03:23;6.20;98.10
8707;DHT22;4390;49.302;9.306;2023-03-12T13:05:58;6.30;97.90
8707;DHT22;4390;49.302;9.306;2023-03-12T13:08:36;6.10;98.30
8707;DHT22;4390;49.302;9.306;2023-03-12T13:11:44;6.20;98.30
8707;DHT22;4390;49.302;9.306;2023-03-12T13:14:34;6.40;98.30
8707;DHT22;4390;49.302;9.306;2023-03-12T13:17:35;6.70;98.10
8707;DHT22;4390;49.302;9.306;2023-03-12T13:20:36;6.60;98.00
8707;DHT22;4390;49.302;9.306;2023-03-12T13:26:27;6.70;97.80
8707;DHT22;4390;49.302;9.306;2023-03-12T13:29:11;6.70;98.10
8707;DHT22;4390;49.302;9.306;2023-03-12T13:31:40;6.80;98.10
8707;DHT22;4390;49.302;9.306;2023-03-12T13:36:58;7.00;97.80
8707;DHT22;4390;49.302;9.306;2023-03-12T13:41:55;6.80;98.30
8707;DHT22;4390;49.302;9.306;2023-03-12T13:50:06;7.00;98.30
8707;DHT22;4390;49.302;9.306;2023-03-12T13:52:46;7.20;98.30
8707;DHT22;4390;49.302;9.306;2023-03-12T13:55:24;7.30;98.30
8707;DHT22;4390;49.302;9.306;2023-03-12T13:57:56;7.30;98.30
8707;DHT22;4390;49.302;9.306;2023-03-12T14:00:29;7.40;98.30
8707;DHT22;4390;49.302;9.306;2023-03-12T14:03:03;7.50;98.30
8707;DHT22;4390;49.302;9.306;2023-03-12T14:06:07;7.70;98.10
8707;DHT22;4390;49.302;9.306;2023-03-12T14:17:01;9.20;97.40
8707;DHT22;4390;49.302;9.306;2023-03-12T14:19:33;9.50;95.80
8707;DHT22;4390;49.302;9.306;2023-03-12T14:22:04;9.80;95.20
8707;DHT22;4390;49.302;9.306;2023-03-12T14:24:47;9.90;94.30
8707;DHT22;4390;49.302;9.306;2023-03-12T14:27:19;9.80;94.40
8707;DHT22;4390;49.302;9.306;2023-03-12T14:30:14;9.70;94.60
8707;DHT22;4390;49.302;9.306;2023-03-12T14:32:43;9.50;95.20
8707;DHT22;4390;49.302;9.306;2023-03-12T14:35:28;9.40;95.80
8707;DHT22;4390;49.302;9.306;2023-03-12T14:41:01;9.60;95.40
8707;DHT22;4390;49.302;9.306;2023-03-12T14:43:31;9.60;95.60
8707;DHT22;4390;49.302;9.306;2023-03-12T14:46:04;9.60;95.90
8707;DHT22;4390;49.302;9.306;2023-03-12T14:48:33;9.60;96.30
8707;DHT22;4390;49.302;9.306;2023-03-12T14:51:03;9.70;96.50
8707;DHT22;4390;49.302;9.306;2023-03-12T14:53:32;9.90;96.30
8707;DHT22;4390;49.302;9.306;2023-03-12T14:56:03;10.20;95.50
8707;DHT22;4390;49.302;9.306;2023-03-12T14:58:32;10.10;95.50
8707;DHT22;4390;49.302;9.306;2023-03-12T15:05:17;10.50;94.60
8707;DHT22;4390;49.302;9.306;2023-03-12T15:07:51;10.30;95.00
8707;DHT22;4390;49.302;9.306;2023-03-12T15:10:24;10.20;95.40
8707;DHT22;4390;49.302;9.306;2023-03-12T15:12:55;10.30;95.20
8707;DHT22;4390;49.302;9.306;2023-03-12T15:16:01;10.30;95.00
8707;DHT22;4390;49.302;9.306;2023-03-12T15:18:29;10.10;95.30
8707;DHT22;4390;49.302;9.306;2023-03-12T15:20:58;9.90;96.00
8707;DHT22;4390;49.302;9.306;2023-03-12T15:23:29;9.80;96.10
8707;DHT22;4390;49.302;9.306;2023-03-12T15:28:44;9.80;96.20
8707;DHT22;4390;49.302;9.306;2023-03-12T15:31:19;9.90;96.50
8707;DHT22;4390;49.302;9.306;2023-03-12T15:33:59;10.10;96.60
8707;DHT22;4390;49.302;9.306;2023-03-12T15:36:27;10.20;96.10
8707;DHT22;4390;49.302;9.306;2023-03-12T15:39:02;9.80;96.30
8707;DHT22;4390;49.302;9.306;2023-03-12T15:44:17;9.40;97.00
8707;DHT22;4390;49.302;9.306;2023-03-12T15:47:05;9.40;97.30
8707;DHT22;4390;49.302;9.306;2023-03-12T15:49:35;9.40;97.20
8707;DHT22;4390;49.302;9.306;2023-03-12T15:55:28;9.20;97.60
8707;DHT22;4390;49.302;9.306;2023-03-12T15:57:55;9.20;97.30
8707;DHT22;4390;49.302;9.306;2023-03-12T16:00:30;9.20;97.50
8707;DHT22;4390;49.302;9.306;2023-03-12T16:03:03;9.10;97.60
8707;DHT22;4390;49.302;9.306;2023-03-12T16:05:37;9.00;98.00
8707;DHT22;4390;49.302;9.306;2023-03-12T16:08:16;9.00;98.20
8707;DHT22;4390;49.302;9.306;2023-03-12T16:10:48;9.00;98.30
8707;DHT22;4390;49.302;9.306;2023-03-12T16:13:21;9.00;98.30
8707;DHT22;4390;49.302;9.306;2023-03-12T16:15:52;8.90;98.30
8707;DHT22;4390;49.302;9.306;2023-03-12T16:18:26;8.90;98.30
8707;DHT22;4390;49.302;9.306;2023-03-12T16:20:53;9.00;98.30
8707;DHT22;4390;49.302;9.306;2023-03-12T16:23:20;9.10;98.20
8707;DHT22;4390;49.302;9.306;2023-03-12T16:25:50;9.20;98.30
8707;DHT22;4390;49.302;9.306;2023-03-12T16:28:20;9.50;97.80
8707;DHT22;4390;49.302;9.306;2023-03-12T16:30:48;9.60;97.30
8707;DHT22;4390;49.302;9.306;2023-03-12T16:33:20;9.60;96.90
8707;DHT22;4390;49.302;9.306;2023-03-12T16:35:49;9.60;96.30
8707;DHT22;4390;49.302;9.306;2023-03-12T16:38:16;9.60;96.00
8707;DHT22;4390;49.302;9.306;2023-03-12T16:40:47;9.40;96.50
8707;DHT22;4390;49.302;9.306;2023-03-12T16:43:24;9.20;96.80
8707;DHT22;4390;49.302;9.306;2023-03-12T16:45:52;9.30;97.00
8707;DHT22;4390;49.302;9.306;2023-03-12T16:48:22;9.30;96.70
8707;DHT22;4390;49.302;9.306;2023-03-12T16:50:52;9.40;96.80
8707;DHT22;4390;49.302;9.306;2023-03-12T16:53:21;9.50;96.40
8707;DHT22;4390;49.302;9.306;2023-03-12T16:55:54;9.50;96.10
8707;DHT22;4390;49.302;9.306;2023-03-12T16:58:29;9.50;96.20
8707;DHT22;4390;49.302;9.306;2023-03-12T17:00:57;9.40;96.20
8707;DHT22;4390;49.302;9.306;2023-03-12T17:03:33;9.50;96.30
8707;DHT22;4390;49.302;9.306;2023-03-12T17:06:11;9.60;96.10
8707;DHT22;4390;49.302;9.306;2023-03-12T17:08:44;9.60;95.70
8707;DHT22;4390;49.302;9.306;2023-03-12T17:11:19;9.50;95.70
8707;DHT22;4390;49.302;9.306;2023-03-12T17:14:00;9.50;95.90
8707;DHT22;4390;49.302;9.306;2023-03-12T17:16:28;9.50;95.70
8707;DHT22;4390;49.302;9.306;2023-03-12T17:18:59;9.50;95.80
8707;DHT22;4390;49.302;9.306;2023-03-12T17:21:28;9.50;95.50
8707;DHT22;4390;49.302;9.306;2023-03-12T17:23:55;9.60;95.50
8707;DHT22;4390;49.302;9.306;2023-03-12T17:26:22;9.50;95.60
8707;DHT22;4390;49.302;9.306;2023-03-12T17:28:53;9.40;95.70
8707;DHT22;4390;49.302;9.306;2023-03-12T17:31:19;9.40;95.30
8707;DHT22;4390;49.302;9.306;2023-03-12T17:33:56;9.50;95.40
8707;DHT22;4390;49.302;9.306;2023-03-12T17:36:26;9.50;95.30
8707;DHT22;4390;49.302;9.306;2023-03-12T17:38:53;9.30;95.60
8707;DHT22;4390;49.302;9.306;2023-03-12T17:41:22;9.20;95.90
8707;DHT22;4390;49.302;9.306;2023-03-12T17:43:53;9.20;96.10
8707;DHT22;4390;49.302;9.306;2023-03-12T17:46:21;9.10;96.10
8707;DHT22;4390;49.302;9.306;2023-03-12T17:48:48;9.10;96.30
8707;DHT22;4390;49.302;9.306;2023-03-12T17:51:20;9.10;96.30
8707;DHT22;4390;49.302;9.306;2023-03-12T17:53:47;9.00;96.30
8707;DHT22;4390;49.302;9.306;2023-03-12T17:56:14;8.80;96.70
8707;DHT22;4390;49.302;9.306;2023-03-12T17:58:44;8.80;96.80
8707;DHT22;4390;49.302;9.306;2023-03-12T18:01:13;8.60;97.30
8707;DHT22;4390;49.302;9.306;2023-03-12T18:03:40;8.60;97.60
8707;DHT22;4390;49.302;9.306;2023-03-12T18:06:10;8.50;98.00
8707;DHT22;4390;49.302;9.306;2023-03-12T18:08:36;8.30;98.30
8707;DHT22;4390;49.302;9.306;2023-03-12T18:11:06;8.30;98.30
8707;DHT22;4390;49.302;9.306;2023-03-12T18:13:34;8.20;98.30
8707;DHT22;4390;49.302;9.306;2023-03-12T18:16:01;8.30;98.30
8707;DHT22;4390;49.302;9.306;2023-03-12T18:18:31;8.20;98.30
8707;DHT22;4390;49.302;9.306;2023-03-12T18:20:58;8.10;98.30
8707;DHT22;4390;49.302;9.306;2023-03-12T18:23:25;8.00;98.30
8707;DHT22;4390;49.302;9.306;2023-03-12T18:25:56;8.00;98.30
8707;DHT22;4390;49.302;9.306;2023-03-12T18:28:29;8.00;98.30
8707;DHT22;4390;49.302;9.306;2023-03-12T18:30:56;7.90;98.30
8707;DHT22;4390;49.302;9.306;2023-03-12T18:33:34;7.90;98.30